sensor_id;sensor_type;location;lat;lon;timestamp;temperature;humidity
20483;DHT22;10400;53.198;6.592;2022-09-28T00:01:54;8.70;99.90
20483;DHT22;10400;53.198;6.592;2022-09-28T00:04:20;8.70;99.90
20483;DHT22;10400;53.198;6.592;2022-09-28T00:06:46;8.70;99.90
20483;DHT22;10400;53.198;6.592;2022-09-28T00:09:14;8.80;99.90
20483;DHT22;10400;53.198;6.592;2022-09-28T00:11:40;8.70;99.90
20483;DHT22;10400;53.198;6.592;2022-09-28T00:14:05;8.80;99.90
20483;DHT22;10400;53.198;6.592;2022-09-28T00:16:34;8.80;99.90
20483;DHT22;10400;53.198;6.592;2022-09-28T00:19:00;8.90;99.90
20483;DHT22;10400;53.198;6.592;2022-09-28T00:21:29;8.80;99.90
20483;DHT22;10400;53.198;6.592;2022-09-28T00:23:57;8.90;99.90
20483;DHT22;10400;53.198;6.592;2022-09-28T00:26:52;8.90;99.90
20483;DHT22;10400;53.198;6.592;2022-09-28T00:31:50;8.90;99.90
20483;DHT22;10400;53.198;6.592;2022-09-28T00:34:17;8.90;99.90
20483;DHT22;10400;53.198;6.592;2022-09-28T00:36:46;8.90;99.90
20483;DHT22;10400;53.198;6.592;2022-09-28T00:39:14;8.90;99.90
20483;DHT22;10400;53.198;6.592;2022-09-28T00:41:40;8.90;99.90
20483;DHT22;10400;53.198;6.592;2022-09-28T00:44:42;8.80;99.90
20483;DHT22;10400;53.198;6.592;2022-09-28T00:47:27;8.80;99.90
20483;DHT22;10400;53.198;6.592;2022-09-28T00:50:02;8.80;99.90
20483;DHT22;10400;53.198;6.592;2022-09-28T00:55:15;8.80;99.90
20483;DHT22;10400;53.198;6.592;2022-09-28T00:57:45;8.70;99.90
20483;DHT22;10400;53.198;6.592;2022-09-28T01:00:13;8.70;99.90
20483;DHT22;10400;53.198;6.592;2022-09-28T01:02:39;8.70;99.90
20483;DHT22;10400;53.198;6.592;2022-09-28T01:05:06;8.60;99.90
20483;DHT22;10400;53.198;6.592;2022-09-28T01:21:18;8.50;99.90
20483;DHT22;10400;53.198;6.592;2022-09-28T01:24:13;8.50;99.90
20483;DHT22;10400;53.198;6.592;2022-09-28T01:26:53;8.50;99.90
20483;DHT22;10400;53.198;6.592;2022-09-28T01:29:34;8.40;99.90
20483;DHT22;10400;53.198;6.592;2022-09-28T01:32:15;8.30;99.90
20483;DHT22;10400;53.198;6.592;2022-09-28T01:37:19;8.20;99.90
20483;DHT22;10400;53.198;6.592;2022-09-28T01:39:47;8.20;99.90
20483;DHT22;10400;53.198;6.592;2022-09-28T01:42:22;8.10;99.90
20483;DHT22;10400;53.198;6.592;2022-09-28T01:44:51;8.10;99.90
20483;DHT22;10400;53.198;6.592;2022-09-28T01:47:21;8.00;99.90
20483;DHT22;10400;53.198;6.592;2022-09-28T01:49:58;8.00;99.90
20483;DHT22;10400;53.198;6.592;2022-09-28T01:52:36;8.00;99.90
20483;DHT22;10400;53.198;6.592;2022-09-28T02:05:16;7.90;99.90
20483;DHT22;10400;53.198;6.592;2022-09-28T02:07:53;7.90;99.90
20483;DHT22;10400;53.198;6.592;2022-09-28T02:10:24;7.90;99.90
20483;DHT22;10400;53.198;6.592;2022-09-28T02:12:55;7.90;99.90
20483;DHT22;10400;53.198;6.592;2022-09-28T02:15:29;7.90;99.90
20483;DHT22;10400;53.198;6.592;2022-09-28T02:17:58;7.90;99.90
20483;DHT22;10400;53.198;6.592;2022-09-28T02:20:24;7.90;99.90
20483;DHT22;10400;53.198;6.592;2022-09-28T02:22:53;7.90;99.90
20483;DHT22;10400;53.198;6.592;2022-09-28T02:28:04;7.90;99.90
20483;DHT22;10400;53.198;6.592;2022-09-28T02:30:31;7.90;99.90
20483;DHT22;10400;53.198;6.592;2022-09-28T02:33:04;7.90;99.90
20483;DHT22;10400;53.198;6.592;2022-09-28T02:35:31;8.00;99.90
20483;DHT22;10400;53.198;6.592;2022-09-28T02:37:59;8.00;99.90
20483;DHT22;10400;53.198;6.592;2022-09-28T02:40:30;8.00;99.90
20483;DHT22;10400;53.198;6.592;2022-09-28T02:51:37;8.10;99.90
20483;DHT22;10400;53.198;6.592;2022-09-28T03:00:04;8.20;99.90
20483;DHT22;10400;53.198;6.592;2022-09-28T03:05:31;8.20;99.90
20483;DHT22;10400;53.198;6.592;2022-09-28T03:13:05;8.30;99.90
20483;DHT22;10400;53.198;6.592;2022-09-28T03:15:33;8.30;99.90
20483;DHT22;10400;53.198;6.592;2022-09-28T03:17:59;8.30;99.90
20483;DHT22;10400;53.198;6.592;2022-09-28T03:20:26;8.30;99.90
20483;DHT22;10400;53.198;6.592;2022-09-28T03:22:52;8.30;99.90
20483;DHT22;10400;53.198;6.592;2022-09-28T03:25:18;8.30;99.90
20483;DHT22;10400;53.198;6.592;2022-09-28T03:27:44;8.30;99.90
20483;DHT22;10400;53.198;6.592;2022-09-28T03:30:10;8.20;99.90
20483;DHT22;10400;53.198;6.592;2022-09-28T03:32:36;8.20;99.90
20483;DHT22;10400;53.198;6.592;2022-09-28T03:35:03;8.20;99.90
20483;DHT22;10400;53.198;6.592;2022-09-28T03:37:29;8.10;99.90
20483;DHT22;10400;53.198;6.592;2022-09-28T03:39:55;8.10;99.90
20483;DHT22;10400;53.198;6.592;2022-09-28T03:42:20;8.10;99.90
20483;DHT22;10400;53.198;6.592;2022-09-28T03:44:46;8.00;99.90
20483;DHT22;10400;53.198;6.592;2022-09-28T03:47:12;8.00;99.90
20483;DHT22;10400;53.198;6.592;2022-09-28T03:49:38;8.00;99.90
20483;DHT22;10400;53.198;6.592;2022-09-28T03:52:04;8.10;99.90
20483;DHT22;10400;53.198;6.592;2022-09-28T03:54:30;8.10;99.90
20483;DHT22;10400;53.198;6.592;2022-09-28T03:56:56;8.00;99.90
20483;DHT22;10400;53.198;6.592;2022-09-28T03:59:22;8.00;99.90
20483;DHT22;10400;53.198;6.592;2022-09-28T04:01:48;7.90;99.90
20483;DHT22;10400;53.198;6.592;2022-09-28T04:04:14;7.90;99.90
20483;DHT22;10400;53.198;6.592;2022-09-28T04:06:40;7.90;99.90
20483;DHT22;10400;53.198;6.592;2022-09-28T04:09:06;7.90;99.90
20483;DHT22;10400;53.198;6.592;2022-09-28T04:11:31;7.80;99.90
20483;DHT22;10400;53.198;6.592;2022-09-28T04:13:57;7.80;99.90
20483;DHT22;10400;53.198;6.592;2022-09-28T04:16:22;7.80;99.90
20483;DHT22;10400;53.198;6.592;2022-09-28T04:18:48;7.70;99.90
20483;DHT22;10400;53.198;6.592;2022-09-28T04:21:16;7.70;99.90
20483;DHT22;10400;53.198;6.592;2022-09-28T04:23:42;7.70;99.90
20483;DHT22;10400;53.198;6.592;2022-09-28T04:26:21;7.70;99.90
20483;DHT22;10400;53.198;6.592;2022-09-28T04:28:47;7.70;99.90
20483;DHT22;10400;53.198;6.592;2022-09-28T04:31:47;7.70;99.90
20483;DHT22;10400;53.198;6.592;2022-09-28T04:34:17;7.70;99.90
20483;DHT22;10400;53.198;6.592;2022-09-28T04:36:44;7.70;99.90
20483;DHT22;10400;53.198;6.592;2022-09-28T04:39:15;7.70;99.90
20483;DHT22;10400;53.198;6.592;2022-09-28T04:41:42;7.70;99.90
20483;DHT22;10400;53.198;6.592;2022-09-28T04:44:08;7.70;99.90
20483;DHT22;10400;53.198;6.592;2022-09-28T04:46:34;7.70;99.90
20483;DHT22;10400;53.198;6.592;2022-09-28T04:48:59;7.80;99.90
20483;DHT22;10400;53.198;6.592;2022-09-28T04:51:25;7.80;99.90
20483;DHT22;10400;53.198;6.592;2022-09-28T04:53:51;7.80;99.90
20483;DHT22;10400;53.198;6.592;2022-09-28T04:56:17;7.80;99.90
20483;DHT22;10400;53.198;6.592;2022-09-28T04:58:43;7.70;99.90
20483;DHT22;10400;53.198;6.592;2022-09-28T05:01:15;7.80;99.90
20483;DHT22;10400;53.198;6.592;2022-09-28T05:03:41;7.70;99.90
20483;DHT22;10400;53.198;6.592;2022-09-28T05:06:08;7.70;99.90
20483;DHT22;10400;53.198;6.592;2022-09-28T05:08:34;7.70;99.90
20483;DHT22;10400;53.198;6.592;2022-09-28T05:11:02;7.70;99.90
20483;DHT22;10400;53.198;6.592;2022-09-28T05:13:29;7.70;99.90
20483;DHT22;10400;53.198;6.592;2022-09-28T05:15:56;7.80;99.90
20483;DHT22;10400;53.198;6.592;2022-09-28T05:18:23;7.80;99.90
20483;DHT22;10400;53.198;6.592;2022-09-28T05:20:49;7.70;99.90
20483;DHT22;10400;53.198;6.592;2022-09-28T05:23:15;7.80;99.90
20483;DHT22;10400;53.198;6.592;2022-09-28T05:25:42;7.80;99.90
20483;DHT22;10400;53.198;6.592;2022-09-28T05:28:08;7.80;99.90
20483;DHT22;10400;53.198;6.592;2022-09-28T05:30:35;7.80;99.90
20483;DHT22;10400;53.198;6.592;2022-09-28T05:33:02;7.70;99.90
20483;DHT22;10400;53.198;6.592;2022-09-28T05:35:28;7.70;99.90
20483;DHT22;10400;53.198;6.592;2022-09-28T05:37:55;7.70;99.90
20483;DHT22;10400;53.198;6.592;2022-09-28T05:40:20;7.70;99.90
20483;DHT22;10400;53.198;6.592;2022-09-28T05:42:46;7.60;99.90
20483;DHT22;10400;53.198;6.592;2022-09-28T05:45:12;7.60;99.90
20483;DHT22;10400;53.198;6.592;2022-09-28T05:47:39;7.60;99.90
20483;DHT22;10400;53.198;6.592;2022-09-28T05:50:07;7.70;99.90
20483;DHT22;10400;53.198;6.592;2022-09-28T05:52:33;7.70;99.90
20483;DHT22;10400;53.198;6.592;2022-09-28T05:54:59;7.70;99.90
20483;DHT22;10400;53.198;6.592;2022-09-28T05:57:24;7.70;99.90
20483;DHT22;10400;53.198;6.592;2022-09-28T05:59:50;7.60;99.90
20483;DHT22;10400;53.198;6.592;2022-09-28T06:02:16;7.70;99.90
20483;DHT22;10400;53.198;6.592;2022-09-28T06:04:41;7.70;99.90
20483;DHT22;10400;53.198;6.592;2022-09-28T06:07:07;7.60;99.90
20483;DHT22;10400;53.198;6.592;2022-09-28T06:09:32;7.60;99.90
20483;DHT22;10400;53.198;6.592;2022-09-28T06:11:58;7.60;99.90
20483;DHT22;10400;53.198;6.592;2022-09-28T06:14:24;7.70;99.90
20483;DHT22;10400;53.198;6.592;2022-09-28T06:16:50;7.70;99.90
20483;DHT22;10400;53.198;6.592;2022-09-28T06:19:17;7.80;99.90
20483;DHT22;10400;53.198;6.592;2022-09-28T06:21:43;7.80;99.90
20483;DHT22;10400;53.198;6.592;2022-09-28T06:24:08;7.80;99.90
20483;DHT22;10400;53.198;6.592;2022-09-28T06:26:34;7.80;99.90
20483;DHT22;10400;53.198;6.592;2022-09-28T06:29:00;7.80;99.90
20483;DHT22;10400;53.198;6.592;2022-09-28T06:31:27;7.80;99.90
20483;DHT22;10400;53.198;6.592;2022-09-28T06:33:56;7.90;99.90
20483;DHT22;10400;53.198;6.592;2022-09-28T06:36:22;7.90;99.90
20483;DHT22;10400;53.198;6.592;2022-09-28T06:38:48;7.90;99.90
20483;DHT22;10400;53.198;6.592;2022-09-28T06:41:14;8.00;99.90
20483;DHT22;10400;53.198;6.592;2022-09-28T06:43:40;8.10;99.90
20483;DHT22;10400;53.198;6.592;2022-09-28T06:46:07;8.20;99.90
20483;DHT22;10400;53.198;6.592;2022-09-28T06:48:34;8.30;99.90
20483;DHT22;10400;53.198;6.592;2022-09-28T06:51:00;8.30;99.90
20483;DHT22;10400;53.198;6.592;2022-09-28T06:53:27;8.30;99.90
20483;DHT22;10400;53.198;6.592;2022-09-28T06:55:54;8.40;99.90
20483;DHT22;10400;53.198;6.592;2022-09-28T06:58:21;8.50;99.90
20483;DHT22;10400;53.198;6.592;2022-09-28T07:00:49;8.50;99.90
20483;DHT22;10400;53.198;6.592;2022-09-28T07:03:20;8.60;99.90
20483;DHT22;10400;53.198;6.592;2022-09-28T07:05:48;8.60;99.90
20483;DHT22;10400;53.198;6.592;2022-09-28T07:08:16;8.60;99.90
20483;DHT22;10400;53.198;6.592;2022-09-28T07:10:46;8.60;99.90
20483;DHT22;10400;53.198;6.592;2022-09-28T07:13:14;8.60;99.90
20483;DHT22;10400;53.198;6.592;2022-09-28T07:15:41;8.60;99.90
20483;DHT22;10400;53.198;6.592;2022-09-28T07:18:07;8.70;99.90
20483;DHT22;10400;53.198;6.592;2022-09-28T07:20:35;8.70;99.90
20483;DHT22;10400;53.198;6.592;2022-09-28T07:23:03;8.80;99.90
20483;DHT22;10400;53.198;6.592;2022-09-28T07:25:30;8.80;99.90
20483;DHT22;10400;53.198;6.592;2022-09-28T07:27:58;8.80;99.90
20483;DHT22;10400;53.198;6.592;2022-09-28T07:30:28;8.90;99.90
20483;DHT22;10400;53.198;6.592;2022-09-28T07:32:55;9.00;99.90
20483;DHT22;10400;53.198;6.592;2022-09-28T07:35:21;9.00;99.90
20483;DHT22;10400;53.198;6.592;2022-09-28T07:37:47;9.00;99.90
20483;DHT22;10400;53.198;6.592;2022-09-28T07:40:13;9.10;99.90
20483;DHT22;10400;53.198;6.592;2022-09-28T07:43:06;9.20;99.90
20483;DHT22;10400;53.198;6.592;2022-09-28T07:45:32;9.10;99.90
20483;DHT22;10400;53.198;6.592;2022-09-28T07:48:01;9.20;99.90
20483;DHT22;10400;53.198;6.592;2022-09-28T07:50:27;9.40;99.90
20483;DHT22;10400;53.198;6.592;2022-09-28T07:52:55;9.20;99.90
20483;DHT22;10400;53.198;6.592;2022-09-28T07:55:21;9.30;99.90
20483;DHT22;10400;53.198;6.592;2022-09-28T07:57:53;9.40;99.90
20483;DHT22;10400;53.198;6.592;2022-09-28T08:00:19;9.40;99.90
20483;DHT22;10400;53.198;6.592;2022-09-28T08:02:45;9.40;99.90
20483;DHT22;10400;53.198;6.592;2022-09-28T08:05:12;9.50;99.90
20483;DHT22;10400;53.198;6.592;2022-09-28T08:07:38;9.60;99.90
20483;DHT22;10400;53.198;6.592;2022-09-28T08:10:04;9.70;99.90
20483;DHT22;10400;53.198;6.592;2022-09-28T08:12:30;9.60;99.90
20483;DHT22;10400;53.198;6.592;2022-09-28T08:14:56;9.60;99.90
20483;DHT22;10400;53.198;6.592;2022-09-28T08:17:21;9.50;99.90
20483;DHT22;10400;53.198;6.592;2022-09-28T08:19:47;9.70;99.90
20483;DHT22;10400;53.198;6.592;2022-09-28T08:22:31;9.80;99.90
20483;DHT22;10400;53.198;6.592;2022-09-28T08:24:57;10.00;99.90
20483;DHT22;10400;53.198;6.592;2022-09-28T08:27:23;10.20;99.90
20483;DHT22;10400;53.198;6.592;2022-09-28T08:29:48;10.30;99.90
20483;DHT22;10400;53.198;6.592;2022-09-28T08:32:14;10.20;99.90
20483;DHT22;10400;53.198;6.592;2022-09-28T08:34:44;10.30;99.90
20483;DHT22;10400;53.198;6.592;2022-09-28T08:37:10;10.40;99.90
20483;DHT22;10400;53.198;6.592;2022-09-28T08:39:36;10.40;99.90
20483;DHT22;10400;53.198;6.592;2022-09-28T08:44:53;10.50;99.90
20483;DHT22;10400;53.198;6.592;2022-09-28T08:47:30;10.60;99.90
20483;DHT22;10400;53.198;6.592;2022-09-28T08:50:20;10.80;99.90
20483;DHT22;10400;53.198;6.592;2022-09-28T08:52:52;10.80;99.90
20483;DHT22;10400;53.198;6.592;2022-09-28T08:55:34;10.90;99.90
20483;DHT22;10400;53.198;6.592;2022-09-28T08:58:21;11.00;99.90
20483;DHT22;10400;53.198;6.592;2022-09-28T09:00:50;11.10;99.90
20483;DHT22;10400;53.198;6.592;2022-09-28T09:03:20;11.30;99.90
20483;DHT22;10400;53.198;6.592;2022-09-28T09:09:02;11.40;99.90
20483;DHT22;10400;53.198;6.592;2022-09-28T09:19:39;11.30;99.90
20483;DHT22;10400;53.198;6.592;2022-09-28T09:22:16;11.30;99.90
20483;DHT22;10400;53.198;6.592;2022-09-28T09:24:50;11.30;99.90
20483;DHT22;10400;53.198;6.592;2022-09-28T09:30:14;11.40;99.90
20483;DHT22;10400;53.198;6.592;2022-09-28T09:32:53;11.70;99.90
20483;DHT22;10400;53.198;6.592;2022-09-28T09:41:22;12.30;99.90
20483;DHT22;10400;53.198;6.592;2022-09-28T09:46:38;12.60;99.90
20483;DHT22;10400;53.198;6.592;2022-09-28T09:49:21;12.60;99.90
20483;DHT22;10400;53.198;6.592;2022-09-28T09:52:17;12.70;99.90
20483;DHT22;10400;53.198;6.592;2022-09-28T09:57:34;12.70;99.90
20483;DHT22;10400;53.198;6.592;2022-09-28T10:00:09;13.00;99.90
20483;DHT22;10400;53.198;6.592;2022-09-28T10:02:38;13.10;99.90
20483;DHT22;10400;53.198;6.592;2022-09-28T10:05:14;13.30;99.90
20483;DHT22;10400;53.198;6.592;2022-09-28T10:12:51;13.80;99.90
20483;DHT22;10400;53.198;6.592;2022-09-28T10:15:25;14.00;99.90
20483;DHT22;10400;53.198;6.592;2022-09-28T10:18:00;13.90;99.90
20483;DHT22;10400;53.198;6.592;2022-09-28T10:20:30;14.10;99.90
20483;DHT22;10400;53.198;6.592;2022-09-28T10:22:58;14.30;99.90
20483;DHT22;10400;53.198;6.592;2022-09-28T10:25:28;14.40;99.90
20483;DHT22;10400;53.198;6.592;2022-09-28T10:27:55;14.50;99.90
20483;DHT22;10400;53.198;6.592;2022-09-28T10:30:23;14.60;99.90
20483;DHT22;10400;53.198;6.592;2022-09-28T10:32:51;14.90;99.90
20483;DHT22;10400;53.198;6.592;2022-09-28T10:36:03;15.20;99.90
20483;DHT22;10400;53.198;6.592;2022-09-28T10:38:16;15.20;99.90
20483;DHT22;10400;53.198;6.592;2022-09-28T10:40:49;15.30;99.90
20483;DHT22;10400;53.198;6.592;2022-09-28T10:43:32;15.40;99.90
20483;DHT22;10400;53.198;6.592;2022-09-28T10:48:27;15.10;99.90
20483;DHT22;10400;53.198;6.592;2022-09-28T10:50:59;14.70;99.90
20483;DHT22;10400;53.198;6.592;2022-09-28T10:53:27;14.50;99.90
20483;DHT22;10400;53.198;6.592;2022-09-28T10:56:01;14.40;99.90
20483;DHT22;10400;53.198;6.592;2022-09-28T10:58:33;14.40;99.90
20483;DHT22;10400;53.198;6.592;2022-09-28T11:01:09;14.40;99.90
20483;DHT22;10400;53.198;6.592;2022-09-28T11:06:31;14.30;99.90
20483;DHT22;10400;53.198;6.592;2022-09-28T11:09:03;14.30;99.90
20483;DHT22;10400;53.198;6.592;2022-09-28T11:11:29;14.20;99.90
20483;DHT22;10400;53.198;6.592;2022-09-28T11:13:58;14.30;99.90
20483;DHT22;10400;53.198;6.592;2022-09-28T11:16:31;14.30;99.90
20483;DHT22;10400;53.198;6.592;2022-09-28T11:19:02;14.30;99.90
20483;DHT22;10400;53.198;6.592;2022-09-28T11:21:30;14.30;99.90
20483;DHT22;10400;53.198;6.592;2022-09-28T11:24:16;14.40;99.90
20483;DHT22;10400;53.198;6.592;2022-09-28T11:26:48;14.60;99.90
20483;DHT22;10400;53.198;6.592;2022-09-28T11:29:34;14.40;99.90
20483;DHT22;10400;53.198;6.592;2022-09-28T11:32:02;14.50;99.90
20483;DHT22;10400;53.198;6.592;2022-09-28T11:34:50;14.50;99.90
20483;DHT22;10400;53.198;6.592;2022-09-28T11:46:31;14.50;99.90
20483;DHT22;10400;53.198;6.592;2022-09-28T11:49:05;14.50;99.90
20483;DHT22;10400;53.198;6.592;2022-09-28T11:51:38;14.70;99.90
20483;DHT22;10400;53.198;6.592;2022-09-28T11:54:29;14.70;99.90
20483;DHT22;10400;53.198;6.592;2022-09-28T11:57:01;14.40;99.90
20483;DHT22;10400;53.198;6.592;2022-09-28T12:02:47;14.10;99.90
20483;DHT22;10400;53.198;6.592;2022-09-28T12:07:48;13.90;99.90
20483;DHT22;10400;53.198;6.592;2022-09-28T12:10:25;13.80;99.90
20483;DHT22;10400;53.198;6.592;2022-09-28T12:13:04;13.70;99.90
20483;DHT22;10400;53.198;6.592;2022-09-28T12:15:53;13.70;99.90
20483;DHT22;10400;53.198;6.592;2022-09-28T12:21:06;13.60;99.90
20483;DHT22;10400;53.198;6.592;2022-09-28T12:23:34;13.60;99.90
20483;DHT22;10400;53.198;6.592;2022-09-28T12:26:04;13.70;99.90
20483;DHT22;10400;53.198;6.592;2022-09-28T12:28:38;13.80;99.90
20483;DHT22;10400;53.198;6.592;2022-09-28T12:31:19;14.00;99.90
20483;DHT22;10400;53.198;6.592;2022-09-28T12:33:47;14.10;99.90
20483;DHT22;10400;53.198;6.592;2022-09-28T12:52:32;14.20;99.90
20483;DHT22;10400;53.198;6.592;2022-09-28T12:55:34;14.10;99.90
20483;DHT22;10400;53.198;6.592;2022-09-28T13:06:55;13.80;99.90
20483;DHT22;10400;53.198;6.592;2022-09-28T13:09:26;13.60;99.90
20483;DHT22;10400;53.198;6.592;2022-09-28T13:14:59;13.30;99.90
20483;DHT22;10400;53.198;6.592;2022-09-28T13:17:50;13.20;99.90
20483;DHT22;10400;53.198;6.592;2022-09-28T13:20:26;13.20;99.90
20483;DHT22;10400;53.198;6.592;2022-09-28T13:23:22;13.20;99.90
20483;DHT22;10400;53.198;6.592;2022-09-28T13:25:58;13.20;99.90
20483;DHT22;10400;53.198;6.592;2022-09-28T13:28:26;13.10;99.90
20483;DHT22;10400;53.198;6.592;2022-09-28T13:30:54;13.10;99.90
20483;DHT22;10400;53.198;6.592;2022-09-28T13:33:42;13.10;99.90
20483;DHT22;10400;53.198;6.592;2022-09-28T13:38:51;13.10;99.90
20483;DHT22;10400;53.198;6.592;2022-09-28T13:41:37;13.10;99.90
20483;DHT22;10400;53.198;6.592;2022-09-28T13:49:44;13.70;99.90
20483;DHT22;10400;53.198;6.592;2022-09-28T13:55:30;14.10;99.90
20483;DHT22;10400;53.198;6.592;2022-09-28T13:58:04;14.20;99.90
20483;DHT22;10400;53.198;6.592;2022-09-28T14:06:26;15.00;99.90
20483;DHT22;10400;53.198;6.592;2022-09-28T14:14:45;15.30;99.90
20483;DHT22;10400;53.198;6.592;2022-09-28T14:25:23;15.30;99.90
20483;DHT22;10400;53.198;6.592;2022-09-28T14:28:55;15.20;99.90
20483;DHT22;10400;53.198;6.592;2022-09-28T14:30:54;15.00;99.90
20483;DHT22;10400;53.198;6.592;2022-09-28T14:33:30;14.80;99.90
20483;DHT22;10400;53.198;6.592;2022-09-28T14:36:00;14.70;99.90
20483;DHT22;10400;53.198;6.592;2022-09-28T14:38:31;14.70;99.90
20483;DHT22;10400;53.198;6.592;2022-09-28T14:41:39;14.70;99.90
20483;DHT22;10400;53.198;6.592;2022-09-28T14:44:07;14.70;99.90
20483;DHT22;10400;53.198;6.592;2022-09-28T14:46:43;14.70;99.90
20483;DHT22;10400;53.198;6.592;2022-09-28T14:54:20;15.10;99.90
20483;DHT22;10400;53.198;6.592;2022-09-28T14:57:03;14.90;99.90
20483;DHT22;10400;53.198;6.592;2022-09-28T14:59:39;14.90;99.90
20483;DHT22;10400;53.198;6.592;2022-09-28T15:04:40;14.90;99.90
20483;DHT22;10400;53.198;6.592;2022-09-28T15:07:28;14.90;99.90
20483;DHT22;10400;53.198;6.592;2022-09-28T15:09:58;14.90;99.90
20483;DHT22;10400;53.198;6.592;2022-09-28T15:12:26;14.90;99.90
20483;DHT22;10400;53.198;6.592;2022-09-28T15:14:56;15.10;99.90
20483;DHT22;10400;53.198;6.592;2022-09-28T15:17:26;15.10;99.90
20483;DHT22;10400;53.198;6.592;2022-09-28T15:20:22;15.20;99.90
20483;DHT22;10400;53.198;6.592;2022-09-28T15:22:52;15.10;99.90
20483;DHT22;10400;53.198;6.592;2022-09-28T15:25:23;15.10;99.90
20483;DHT22;10400;53.198;6.592;2022-09-28T15:27:55;15.00;99.90
20483;DHT22;10400;53.198;6.592;2022-09-28T15:30:29;15.00;99.90
20483;DHT22;10400;53.198;6.592;2022-09-28T15:32:57;15.10;99.90
20483;DHT22;10400;53.198;6.592;2022-09-28T15:35:58;15.10;99.90
20483;DHT22;10400;53.198;6.592;2022-09-28T15:38:26;15.00;99.90
20483;DHT22;10400;53.198;6.592;2022-09-28T15:40:53;15.00;99.90
20483;DHT22;10400;53.198;6.592;2022-09-28T15:43:25;14.90;99.90
20483;DHT22;10400;53.198;6.592;2022-09-28T15:46:03;14.70;99.90
20483;DHT22;10400;53.198;6.592;2022-09-28T15:48:35;14.60;99.90
20483;DHT22;10400;53.198;6.592;2022-09-28T15:51:07;14.50;99.90
20483;DHT22;10400;53.198;6.592;2022-09-28T15:54:06;14.40;99.90
20483;DHT22;10400;53.198;6.592;2022-09-28T15:59:35;14.20;99.90
20483;DHT22;10400;53.198;6.592;2022-09-28T16:04:53;14.10;99.90
20483;DHT22;10400;53.198;6.592;2022-09-28T16:07:39;14.00;99.90
20483;DHT22;10400;53.198;6.592;2022-09-28T16:12:55;13.90;99.90
20483;DHT22;10400;53.198;6.592;2022-09-28T16:15:41;13.90;99.90
20483;DHT22;10400;53.198;6.592;2022-09-28T16:20:43;13.60;99.90
20483;DHT22;10400;53.198;6.592;2022-09-28T16:23:40;13.40;99.90
20483;DHT22;10400;53.198;6.592;2022-09-28T16:26:14;13.30;99.90
20483;DHT22;10400;53.198;6.592;2022-09-28T16:33:51;13.10;99.90
20483;DHT22;10400;53.198;6.592;2022-09-28T16:36:19;13.10;99.90
20483;DHT22;10400;53.198;6.592;2022-09-28T16:38:46;13.00;99.90
20483;DHT22;10400;53.198;6.592;2022-09-28T16:41:15;13.00;99.90
20483;DHT22;10400;53.198;6.592;2022-09-28T16:43:44;12.90;99.90
20483;DHT22;10400;53.198;6.592;2022-09-28T16:46:12;12.90;99.90
20483;DHT22;10400;53.198;6.592;2022-09-28T16:48:43;12.80;99.90
20483;DHT22;10400;53.198;6.592;2022-09-28T16:51:21;12.80;99.90
20483;DHT22;10400;53.198;6.592;2022-09-28T16:53:47;12.70;99.90
20483;DHT22;10400;53.198;6.592;2022-09-28T16:56:33;12.50;99.90
20483;DHT22;10400;53.198;6.592;2022-09-28T16:58:59;12.50;99.90
20483;DHT22;10400;53.198;6.592;2022-09-28T17:01:27;12.40;99.90
20483;DHT22;10400;53.198;6.592;2022-09-28T17:03:54;12.40;99.90
20483;DHT22;10400;53.198;6.592;2022-09-28T17:06:21;12.30;99.90
20483;DHT22;10400;53.198;6.592;2022-09-28T17:08:49;12.30;99.90
20483;DHT22;10400;53.198;6.592;2022-09-28T17:11:17;12.20;99.90
20483;DHT22;10400;53.198;6.592;2022-09-28T17:13:44;12.10;99.90
20483;DHT22;10400;53.198;6.592;2022-09-28T17:16:14;12.00;99.90
20483;DHT22;10400;53.198;6.592;2022-09-28T17:18:40;12.00;99.90
20483;DHT22;10400;53.198;6.592;2022-09-28T17:21:10;12.00;99.90
20483;DHT22;10400;53.198;6.592;2022-09-28T17:23:36;11.90;99.90
20483;DHT22;10400;53.198;6.592;2022-09-28T17:26:03;11.80;99.90
20483;DHT22;10400;53.198;6.592;2022-09-28T17:28:32;11.70;99.90
20483;DHT22;10400;53.198;6.592;2022-09-28T17:30:58;11.70;99.90
20483;DHT22;10400;53.198;6.592;2022-09-28T17:33:24;11.60;99.90
20483;DHT22;10400;53.198;6.592;2022-09-28T17:35:52;11.50;99.90
20483;DHT22;10400;53.198;6.592;2022-09-28T17:38:21;11.50;99.90
20483;DHT22;10400;53.198;6.592;2022-09-28T17:40:47;11.50;99.90
20483;DHT22;10400;53.198;6.592;2022-09-28T17:43:12;11.40;99.90
20483;DHT22;10400;53.198;6.592;2022-09-28T17:45:39;11.30;99.90
20483;DHT22;10400;53.198;6.592;2022-09-28T17:48:06;11.40;99.90
20483;DHT22;10400;53.198;6.592;2022-09-28T17:50:33;11.30;99.90
20483;DHT22;10400;53.198;6.592;2022-09-28T17:53:00;11.20;99.90
20483;DHT22;10400;53.198;6.592;2022-09-28T17:55:31;11.10;99.90
20483;DHT22;10400;53.198;6.592;2022-09-28T17:58:09;11.10;99.90
20483;DHT22;10400;53.198;6.592;2022-09-28T18:00:35;11.10;99.90
20483;DHT22;10400;53.198;6.592;2022-09-28T18:03:01;11.00;99.90
20483;DHT22;10400;53.198;6.592;2022-09-28T18:05:27;11.00;99.90
20483;DHT22;10400;53.198;6.592;2022-09-28T18:07:54;10.90;99.90
20483;DHT22;10400;53.198;6.592;2022-09-28T18:10:23;10.90;99.90
20483;DHT22;10400;53.198;6.592;2022-09-28T18:12:50;10.90;99.90
20483;DHT22;10400;53.198;6.592;2022-09-28T18:15:17;10.80;99.90
20483;DHT22;10400;53.198;6.592;2022-09-28T18:17:43;10.80;99.90
20483;DHT22;10400;53.198;6.592;2022-09-28T18:20:10;10.80;99.90
20483;DHT22;10400;53.198;6.592;2022-09-28T18:22:36;10.70;99.90
20483;DHT22;10400;53.198;6.592;2022-09-28T18:25:03;10.70;99.90
20483;DHT22;10400;53.198;6.592;2022-09-28T18:27:29;10.70;99.90
20483;DHT22;10400;53.198;6.592;2022-09-28T18:29:55;10.70;99.90
20483;DHT22;10400;53.198;6.592;2022-09-28T18:32:22;10.60;99.90
20483;DHT22;10400;53.198;6.592;2022-09-28T18:34:48;10.60;99.90
20483;DHT22;10400;53.198;6.592;2022-09-28T18:37:14;10.50;99.90
20483;DHT22;10400;53.198;6.592;2022-09-28T18:39:39;10.50;99.90
20483;DHT22;10400;53.198;6.592;2022-09-28T18:42:05;10.50;99.90
20483;DHT22;10400;53.198;6.592;2022-09-28T18:44:31;10.40;99.90
20483;DHT22;10400;53.198;6.592;2022-09-28T18:46:57;10.40;99.90
20483;DHT22;10400;53.198;6.592;2022-09-28T18:49:23;10.40;99.90
20483;DHT22;10400;53.198;6.592;2022-09-28T18:51:49;10.30;99.90
20483;DHT22;10400;53.198;6.592;2022-09-28T18:54:14;10.30;99.90
20483;DHT22;10400;53.198;6.592;2022-09-28T18:56:41;10.20;99.90
20483;DHT22;10400;53.198;6.592;2022-09-28T18:59:08;10.20;99.90
20483;DHT22;10400;53.198;6.592;2022-09-28T19:01:35;10.20;99.90
20483;DHT22;10400;53.198;6.592;2022-09-28T19:04:03;10.10;99.90
20483;DHT22;10400;53.198;6.592;2022-09-28T19:06:29;10.10;99.90
20483;DHT22;10400;53.198;6.592;2022-09-28T19:08:56;10.20;99.90
20483;DHT22;10400;53.198;6.592;2022-09-28T19:11:23;10.10;99.90
20483;DHT22;10400;53.198;6.592;2022-09-28T19:13:49;10.10;99.90
20483;DHT22;10400;53.198;6.592;2022-09-28T19:16:20;10.10;99.90